createdAt,value
2019-02-04T00:03:48.583Z,5.23
2019-02-04T00:08:50.019Z,6.30
2019-02-04T00:13:51.674Z,5.47
2019-02-04T00:18:53.051Z,4.90
2019-02-04T00:23:54.518Z,4.10
2019-02-04T00:28:55.979Z,4.60
2019-02-04T00:33:57.363Z,3.93
2019-02-04T00:38:58.763Z,4.43
2019-02-04T00:44:00.175Z,4.13
2019-02-04T00:49:01.605Z,3.83
2019-02-04T00:54:04.267Z,3.90
2019-02-04T00:59:05.944Z,4.00
2019-02-04T01:04:07.401Z,3.77
2019-02-04T01:09:09.039Z,4.00
2019-02-04T01:14:10.445Z,3.97
2019-02-04T01:19:11.770Z,4.00
2019-02-04T01:24:13.163Z,4.13
2019-02-04T01:29:14.517Z,4.43
2019-02-04T01:34:15.902Z,4.23
2019-02-04T01:39:17.334Z,3.90
2019-02-04T01:44:18.751Z,3.97
2019-02-04T01:49:20.195Z,4.10
2019-02-04T01:54:21.649Z,4.73
2019-02-04T01:59:22.989Z,4.10
2019-02-04T02:04:24.375Z,4.30
2019-02-04T02:09:25.756Z,4.33
2019-02-04T02:14:27.081Z,4.50
2019-02-04T02:19:28.473Z,5.10
2019-02-04T02:24:29.806Z,3.93
2019-02-04T02:29:31.634Z,4.30
2019-02-04T02:34:32.947Z,4.20
2019-02-04T02:39:34.464Z,4.07
2019-02-04T02:44:35.881Z,3.97
2019-02-04T02:49:37.282Z,3.30
2019-02-04T02:54:38.609Z,3.57
2019-02-04T02:59:40.084Z,3.30
2019-02-04T03:04:41.441Z,3.83
2019-02-04T03:09:42.832Z,3.57
2019-02-04T03:14:44.170Z,3.07
2019-02-04T03:19:45.549Z,3.50
2019-02-04T03:24:46.929Z,2.97
2019-02-04T03:29:48.317Z,3.20
2019-02-04T03:34:50.073Z,3.00
2019-02-04T03:39:51.530Z,2.67
2019-02-04T03:44:52.889Z,2.90
2019-02-04T03:49:54.261Z,2.53
2019-02-04T03:54:55.590Z,2.83
2019-02-04T03:59:57.603Z,2.77
2019-02-04T04:04:58.988Z,2.50
2019-02-04T04:10:00.434Z,2.27
2019-02-04T04:15:02.097Z,2.73
2019-02-04T04:20:09.176Z,2.30
2019-02-04T04:25:16.126Z,2.67
2019-02-04T04:30:27.983Z,2.33
2019-02-04T04:35:29.751Z,1.83
2019-02-04T04:40:32.219Z,2.40
2019-02-04T04:45:33.717Z,2.77
2019-02-04T04:50:35.067Z,3.10
2019-02-04T04:55:36.574Z,2.50
2019-02-04T05:00:38.324Z,2.97
2019-02-04T05:05:39.696Z,3.67
2019-02-04T05:10:41.177Z,2.60
2019-02-04T05:15:42.738Z,3.27
2019-02-04T05:20:44.068Z,2.63
2019-02-04T05:25:45.479Z,2.60
2019-02-04T05:30:46.842Z,2.70
2019-02-04T05:35:48.379Z,2.60
2019-02-04T05:40:49.728Z,2.63
2019-02-04T05:45:51.112Z,2.60
2019-02-04T05:50:52.570Z,2.63
2019-02-04T05:55:54.031Z,2.50
2019-02-04T06:00:55.524Z,2.80
2019-02-04T06:05:57.197Z,2.73
2019-02-04T06:10:58.533Z,2.50
2019-02-04T06:16:00.027Z,2.50
2019-02-04T06:21:01.363Z,3.00
2019-02-04T06:26:02.956Z,2.67
2019-02-04T06:31:04.435Z,2.60
2019-02-04T06:36:05.797Z,2.40
2019-02-04T06:41:07.251Z,2.30
2019-02-04T06:46:08.591Z,2.60
2019-02-04T06:51:10.135Z,2.33
2019-02-04T06:56:11.525Z,2.50
2019-02-04T07:01:12.910Z,2.73
2019-02-04T07:06:14.282Z,3.10
2019-02-04T07:11:15.937Z,2.90
2019-02-04T07:16:17.271Z,2.60
2019-02-04T07:21:21.014Z,2.60
2019-02-04T07:26:21.968Z,2.67
2019-02-04T07:31:23.343Z,3.00
2019-02-04T07:36:24.727Z,2.60
2019-02-04T07:41:26.171Z,3.00
2019-02-04T07:46:27.548Z,2.93
2019-02-04T07:51:29.423Z,3.00
2019-02-04T07:56:30.753Z,3.17
2019-02-04T08:01:32.174Z,3.83
2019-02-04T08:06:33.587Z,3.37
2019-02-04T08:11:34.977Z,3.60
2019-02-04T08:16:36.315Z,3.33
2019-02-04T08:21:38.557Z,3.93
2019-02-04T08:26:40.007Z,3.57
2019-02-04T08:31:41.435Z,3.90
2019-02-04T08:36:46.043Z,3.77
2019-02-04T08:41:46.129Z,3.57
2019-02-04T08:46:47.470Z,4.40
2019-02-04T08:51:48.866Z,4.17
2019-02-04T08:56:50.322Z,3.30
2019-02-04T09:01:51.666Z,3.50
2019-02-04T09:06:53.067Z,4.00
2019-02-04T09:11:56.189Z,4.10
2019-02-04T09:16:57.649Z,4.07
2019-02-04T09:21:59.185Z,4.90
2019-02-04T09:27:00.566Z,4.40
2019-02-04T09:32:01.925Z,4.50
2019-02-04T09:37:03.601Z,4.37
2019-02-04T09:42:05.237Z,4.20
2019-02-04T09:47:06.702Z,3.73
2019-02-04T09:52:08.106Z,3.90
2019-02-04T09:57:09.542Z,3.73
2019-02-04T10:02:11.026Z,4.17
2019-02-04T10:07:12.602Z,4.07
2019-02-04T10:12:13.976Z,4.40
2019-02-04T10:17:15.331Z,4.20
2019-02-04T10:22:16.735Z,4.50
2019-02-04T10:27:18.160Z,4.50
2019-02-04T10:32:19.818Z,4.07
2019-02-04T10:37:21.347Z,4.50
2019-02-04T10:42:22.872Z,5.00
2019-02-04T10:47:25.253Z,4.13
2019-02-04T10:52:26.634Z,3.83
2019-02-04T10:57:40.009Z,3.60
2019-02-04T11:02:31.374Z,3.93
2019-02-04T11:07:32.802Z,4.63
2019-02-04T11:12:34.692Z,4.00
2019-02-04T11:17:36.151Z,4.00
2019-02-04T11:22:37.475Z,4.00
2019-02-04T11:27:38.930Z,4.00
2019-02-04T11:32:40.399Z,3.87
2019-02-04T11:37:42.160Z,4.03
2019-02-04T11:42:43.571Z,4.00
2019-02-04T11:47:46.011Z,3.40
2019-02-04T11:52:47.361Z,3.50
2019-02-04T11:57:48.803Z,3.83
2019-02-04T12:02:52.018Z,3.37
2019-02-04T12:07:53.394Z,3.77
2019-02-04T12:12:54.890Z,3.70
2019-02-04T12:17:56.260Z,3.53
2019-02-04T12:22:57.822Z,3.50
2019-02-04T12:27:59.195Z,3.63
2019-02-04T12:33:02.859Z,3.37
2019-02-04T12:38:05.494Z,3.50
2019-02-04T12:43:07.369Z,3.37
2019-02-04T12:48:08.840Z,3.17
2019-02-04T12:53:10.592Z,2.90
2019-02-04T12:58:11.985Z,2.70
2019-02-04T13:03:13.322Z,2.93
2019-02-04T13:08:14.923Z,2.60
2019-02-04T13:13:17.482Z,3.70
2019-02-04T13:18:19.069Z,2.60
2019-02-04T13:23:20.412Z,2.80
2019-02-04T13:28:22.229Z,2.10
2019-02-04T13:33:23.785Z,3.20
2019-02-04T13:38:25.150Z,3.50
2019-02-04T13:43:26.479Z,2.50
2019-02-04T13:48:28.378Z,3.10
2019-02-04T13:53:29.749Z,3.20
2019-02-04T13:58:31.087Z,2.30
2019-02-04T14:03:32.489Z,2.83
2019-02-04T14:08:33.915Z,3.40
2019-02-04T14:13:35.335Z,3.60
2019-02-04T14:18:36.748Z,2.70
2019-02-04T14:23:38.252Z,3.20
2019-02-04T14:28:39.711Z,2.60
2019-02-04T14:33:41.146Z,3.60
2019-02-04T14:38:42.544Z,2.77
2019-02-04T14:43:44.303Z,2.47
2019-02-04T14:48:56.495Z,2.40
2019-02-04T14:54:39.481Z,2.30
2019-02-04T14:59:46.253Z,2.33
2019-02-04T15:05:02.287Z,2.70
2019-02-04T15:10:24.892Z,2.70
2019-02-04T15:15:59.248Z,3.10
2019-02-04T15:21:24.582Z,3.13
2019-02-04T15:27:14.491Z,2.90
2019-02-04T15:32:25.659Z,3.20
2019-02-04T15:37:35.309Z,3.13
2019-02-04T15:43:11.600Z,2.80
2019-02-04T15:48:16.704Z,3.40
2019-02-04T15:53:18.141Z,3.50
2019-02-04T15:58:19.495Z,2.87
2019-02-04T16:03:21.694Z,3.27
2019-02-04T16:08:23.055Z,2.80
2019-02-04T16:13:24.390Z,2.60
2019-02-04T16:18:25.811Z,2.67
2019-02-04T16:23:27.222Z,2.97
2019-02-04T16:28:28.627Z,2.60
2019-02-04T16:33:30.054Z,2.43
2019-02-04T16:38:31.441Z,2.60
2019-02-04T16:43:33.121Z,2.67
2019-02-04T16:48:34.460Z,2.33
2019-02-04T16:53:35.936Z,2.00
2019-02-04T16:58:37.288Z,3.10
2019-02-04T17:03:38.679Z,2.90
2019-02-04T17:08:40.154Z,2.03
2019-02-04T17:13:41.598Z,3.40
2019-02-04T17:18:43.016Z,2.53
2019-02-04T17:23:44.746Z,3.00
2019-02-04T17:28:46.111Z,2.37
2019-02-04T17:33:47.446Z,2.90
2019-02-04T17:38:49.150Z,2.50
2019-02-04T17:43:50.586Z,2.70
2019-02-04T17:48:51.985Z,3.07
2019-02-04T17:53:53.342Z,2.77
2019-02-04T17:58:54.699Z,2.63
2019-02-04T18:03:56.186Z,2.63
2019-02-04T18:08:57.611Z,2.97
2019-02-04T18:13:59.004Z,3.13
2019-02-04T18:19:00.338Z,3.27
2019-02-04T18:24:01.738Z,2.60
2019-02-04T18:29:03.499Z,2.97
2019-02-04T18:34:05.169Z,2.63
2019-02-04T18:39:07.745Z,2.80
2019-02-04T18:44:09.999Z,2.70
2019-02-04T18:49:11.734Z,3.10
2019-02-04T18:54:13.193Z,2.60
2019-02-04T18:59:14.566Z,2.80
2019-02-04T19:04:16.050Z,2.90
2019-02-04T19:09:17.520Z,2.60
2019-02-04T19:14:18.930Z,2.60
2019-02-04T19:19:20.731Z,2.97
2019-02-04T19:24:22.062Z,2.70
2019-02-04T19:29:23.448Z,2.70
2019-02-04T19:34:24.851Z,2.43
2019-02-04T19:39:26.156Z,2.43
2019-02-04T19:44:27.645Z,3.03
2019-02-04T19:49:28.982Z,2.87
2019-02-04T19:54:30.380Z,3.30
2019-02-04T19:59:31.709Z,2.80
2019-02-04T20:04:33.093Z,2.73
2019-02-04T20:09:34.530Z,3.00
2019-02-04T20:14:36.037Z,2.97
2019-02-04T20:19:37.370Z,2.90
2019-02-04T20:24:38.768Z,3.47
2019-02-04T20:29:40.100Z,3.57
2019-02-04T20:34:41.599Z,2.67
2019-02-04T20:39:42.975Z,3.43
2019-02-04T20:44:44.362Z,3.10
2019-02-04T20:49:45.695Z,2.53
2019-02-04T20:54:47.431Z,2.97
2019-02-04T20:59:48.930Z,3.07
2019-02-04T21:04:51.361Z,2.50
2019-02-04T21:09:53.742Z,2.90
2019-02-04T21:14:55.108Z,2.63
2019-02-04T21:19:56.436Z,3.00
2019-02-04T21:24:57.822Z,3.10
2019-02-04T21:29:59.199Z,2.60
2019-02-04T21:35:00.959Z,3.40
2019-02-04T21:40:07.194Z,3.10
2019-02-04T21:45:13.219Z,2.77
2019-02-04T21:50:26.874Z,3.13
2019-02-04T21:55:28.239Z,3.30
2019-02-04T22:00:36.519Z,2.90
2019-02-04T22:05:37.993Z,3.43
2019-02-04T22:10:39.603Z,3.33
2019-02-04T22:15:41.032Z,3.37
2019-02-04T22:20:42.486Z,3.80
2019-02-04T22:25:43.904Z,3.40
2019-02-04T22:30:45.330Z,3.77
2019-02-04T22:35:46.730Z,3.80
2019-02-04T22:40:48.094Z,4.00
2019-02-04T22:45:49.523Z,3.67
2019-02-04T22:50:50.960Z,4.20
2019-02-04T22:55:52.355Z,3.90
2019-02-04T23:01:05.005Z,3.90
2019-02-04T23:06:06.350Z,3.83
2019-02-04T23:11:07.745Z,3.43
2019-02-04T23:16:09.514Z,3.73
2019-02-04T23:21:11.077Z,4.33
2019-02-04T23:26:12.421Z,3.80
2019-02-04T23:31:13.812Z,3.47
2019-02-04T23:36:16.202Z,4.63
2019-02-04T23:41:17.541Z,4.23
2019-02-04T23:46:18.965Z,4.10
2019-02-04T23:51:20.401Z,4.07
2019-02-04T23:56:21.838Z,4.27
